createdAt,value
2023-10-11T00:00:28.851Z,51.64
2023-10-11T00:01:28.863Z,51.64
2023-10-11T00:02:28.831Z,51.64
2023-10-11T00:03:28.917Z,51.64
2023-10-11T00:04:28.883Z,51.64
2023-10-11T00:05:28.792Z,51.64
2023-10-11T00:06:28.816Z,51.64
2023-10-11T00:07:28.783Z,51.64
2023-10-11T00:08:28.764Z,51.64
2023-10-11T00:09:28.753Z,51.54
2023-10-11T00:10:28.744Z,51.64
2023-10-11T00:11:28.786Z,51.64
2023-10-11T00:12:28.725Z,51.64
2023-10-11T00:13:28.708Z,51.54
2023-10-11T00:14:28.753Z,51.54
2023-10-11T00:15:28.686Z,51.54
2023-10-11T00:16:28.700Z,51.54
2023-10-11T00:17:28.696Z,51.54
2023-10-11T00:18:28.873Z,51.54
2023-10-11T00:19:28.690Z,51.54
2023-10-11T00:20:28.629Z,51.54
2023-10-11T00:21:28.651Z,51.45
2023-10-11T00:22:28.613Z,51.54
2023-10-11T00:23:28.607Z,51.54
2023-10-11T00:24:28.586Z,51.54
2023-10-11T00:25:28.609Z,51.54
2023-10-11T00:26:28.589Z,51.45
2023-10-11T00:27:28.560Z,51.45
2023-10-11T00:28:28.541Z,51.54
2023-10-11T00:29:28.534Z,51.54
2023-10-11T00:30:28.605Z,51.54
2023-10-11T00:31:28.551Z,51.45
2023-10-11T00:32:28.537Z,51.45
2023-10-11T00:33:38.485Z,51.45
2023-10-11T00:34:29.553Z,51.45
2023-10-11T00:35:28.499Z,51.45
2023-10-11T00:36:28.492Z,51.45
2023-10-11T00:37:28.455Z,51.45
2023-10-11T00:38:28.435Z,51.45
2023-10-11T00:39:28.466Z,51.45
2023-10-11T00:40:28.474Z,51.45
2023-10-11T00:41:28.432Z,51.54
2023-10-11T00:42:28.393Z,51.45
2023-10-11T00:43:28.386Z,51.45
2023-10-11T00:44:28.378Z,51.54
2023-10-11T00:45:28.362Z,51.45
2023-10-11T00:46:28.427Z,51.45
2023-10-11T00:47:28.342Z,51.54
2023-10-11T00:48:28.380Z,51.45
2023-10-11T00:49:28.322Z,51.54
2023-10-11T00:50:28.307Z,51.45
2023-10-11T00:51:28.333Z,51.45
2023-10-11T00:52:28.284Z,51.45
2023-10-11T00:53:28.272Z,51.45
2023-10-11T00:54:28.262Z,51.45
2023-10-11T00:55:28.254Z,51.45
2023-10-11T00:56:28.272Z,51.45
2023-10-11T00:57:28.229Z,51.54
2023-10-11T00:58:28.220Z,51.45
2023-10-11T00:59:28.235Z,51.45
2023-10-11T01:00:28.213Z,51.45
2023-10-11T01:01:28.247Z,51.45
2023-10-11T01:02:28.242Z,51.45
2023-10-11T01:03:28.322Z,51.45
2023-10-11T01:04:28.323Z,51.45
2023-10-11T01:05:28.142Z,51.45
2023-10-11T01:06:28.132Z,51.45
2023-10-11T01:07:28.148Z,51.45
2023-10-11T01:08:28.119Z,51.45
2023-10-11T01:09:28.128Z,51.34
2023-10-11T01:10:28.087Z,51.45
2023-10-11T01:11:28.076Z,51.45
2023-10-11T01:12:28.090Z,51.45
2023-10-11T01:13:28.054Z,51.45
2023-10-11T01:14:28.040Z,51.45
2023-10-11T01:15:28.035Z,51.34
2023-10-11T01:16:28.062Z,51.45
2023-10-11T01:17:28.107Z,51.45
2023-10-11T01:18:28.145Z,51.45
2023-10-11T01:19:27.990Z,51.45
2023-10-11T01:20:28.010Z,51.45
2023-10-11T01:21:27.984Z,51.34
2023-10-11T01:22:27.956Z,51.45
2023-10-11T01:23:27.945Z,51.34
2023-10-11T01:24:27.929Z,51.45
2023-10-11T01:25:27.922Z,51.45
2023-10-11T01:26:27.939Z,51.45
2023-10-11T01:27:27.901Z,51.34
2023-10-11T01:28:27.887Z,51.45
2023-10-11T01:29:27.878Z,51.45
2023-10-11T01:30:27.894Z,51.34
2023-10-11T01:31:27.866Z,51.34
2023-10-11T01:32:27.844Z,51.34
2023-10-11T01:33:27.961Z,51.34
2023-10-11T01:34:27.910Z,51.34
2023-10-11T01:35:27.849Z,51.34
2023-10-11T01:36:27.801Z,51.34
2023-10-11T01:37:27.820Z,51.34
2023-10-11T01:38:27.815Z,51.34
2023-10-11T01:39:27.813Z,51.34
2023-10-11T01:40:27.783Z,51.34
2023-10-11T01:41:27.818Z,51.34
2023-10-11T01:42:27.734Z,51.34
2023-10-11T01:43:27.730Z,51.34
2023-10-11T01:44:27.713Z,51.34
2023-10-11T01:45:27.707Z,51.34
2023-10-11T01:46:27.836Z,51.34
2023-10-11T01:47:27.719Z,51.25
2023-10-11T01:48:27.785Z,51.34
2023-10-11T01:49:27.661Z,51.25
2023-10-11T01:50:27.690Z,51.34
2023-10-11T01:51:28.524Z,51.34
2023-10-11T01:52:27.633Z,51.34
2023-10-11T01:53:27.618Z,51.25
2023-10-11T01:54:27.606Z,51.25
2023-10-11T01:55:27.598Z,51.25
2023-10-11T01:56:27.612Z,51.34
2023-10-11T01:57:27.596Z,51.25
2023-10-11T01:58:27.586Z,51.34
2023-10-11T01:59:27.562Z,51.25
2023-10-11T02:00:28.928Z,51.25
2023-10-11T02:01:27.567Z,51.25
2023-10-11T02:02:27.572Z,51.25
2023-10-11T02:03:27.640Z,51.25
2023-10-11T02:04:27.498Z,51.25
2023-10-11T02:05:27.525Z,51.25
2023-10-11T02:06:27.530Z,51.25
2023-10-11T02:07:27.465Z,51.25
2023-10-11T02:08:27.457Z,51.25
2023-10-11T02:09:27.534Z,51.25
2023-10-11T02:10:27.435Z,51.34
2023-10-11T02:11:27.445Z,51.34
2023-10-11T02:12:27.416Z,51.34
2023-10-11T02:13:27.398Z,51.25
2023-10-11T02:14:27.415Z,51.25
2023-10-11T02:15:27.382Z,51.25
2023-10-11T02:16:27.409Z,51.25
2023-10-11T02:17:27.384Z,51.34
2023-10-11T02:18:27.418Z,51.25
2023-10-11T02:19:27.350Z,51.25
2023-10-11T02:20:27.318Z,51.25
2023-10-11T02:21:27.340Z,51.25
2023-10-11T02:22:27.321Z,51.25
2023-10-11T02:23:27.299Z,51.25
2023-10-11T02:24:28.507Z,51.25
2023-10-11T02:25:27.266Z,51.25
2023-10-11T02:26:27.283Z,51.25
2023-10-11T02:27:27.270Z,51.25
2023-10-11T02:28:27.232Z,51.25
2023-10-11T02:29:27.948Z,51.25
2023-10-11T02:30:27.228Z,51.25
2023-10-11T02:31:27.228Z,51.25
2023-10-11T02:32:27.223Z,51.25
2023-10-11T02:33:27.304Z,51.25
2023-10-11T02:34:27.170Z,51.15
2023-10-11T02:35:27.160Z,51.25
2023-10-11T02:36:27.177Z,51.25
2023-10-11T02:37:27.160Z,51.25
2023-10-11T02:38:27.154Z,51.25
2023-10-11T02:39:27.114Z,51.25
2023-10-11T02:40:27.101Z,51.25
2023-10-11T02:41:27.093Z,51.15
2023-10-11T02:42:27.118Z,51.25
2023-10-11T02:43:27.073Z,51.25
2023-10-11T02:44:27.065Z,51.15
2023-10-11T02:45:27.087Z,51.15
2023-10-11T02:46:27.037Z,51.15
2023-10-11T02:47:27.057Z,51.25
2023-10-11T02:48:27.047Z,51.25
2023-10-11T02:49:27.010Z,51.25
2023-10-11T02:50:26.993Z,51.25
2023-10-11T02:51:26.991Z,51.15
2023-10-11T02:52:27.002Z,51.25
2023-10-11T02:53:26.962Z,51.15
2023-10-11T02:54:26.976Z,51.25
2023-10-11T02:55:26.940Z,51.15
2023-10-11T02:56:26.929Z,51.15
2023-10-11T02:57:27.007Z,51.15
2023-10-11T02:58:26.909Z,51.15
2023-10-11T02:59:26.909Z,51.15
2023-10-11T03:00:26.947Z,51.15
2023-10-11T03:01:26.902Z,51.15
2023-10-11T03:02:26.896Z,51.15
2023-10-11T03:03:26.951Z,51.15
2023-10-11T03:04:26.842Z,51.15
2023-10-11T03:05:26.829Z,51.15
2023-10-11T03:06:26.826Z,51.15
2023-10-11T03:07:26.807Z,51.15
2023-10-11T03:08:26.827Z,51.15
2023-10-11T03:09:29.325Z,51.15
2023-10-11T03:10:26.801Z,51.15
2023-10-11T03:11:26.769Z,51.04
2023-10-11T03:12:26.821Z,51.04
2023-10-11T03:13:26.796Z,51.15
2023-10-11T03:14:26.731Z,51.15
2023-10-11T03:15:26.853Z,51.15
2023-10-11T03:16:26.709Z,51.04
2023-10-11T03:17:26.740Z,51.15
2023-10-11T03:18:26.794Z,51.04
2023-10-11T03:19:26.676Z,51.04
2023-10-11T03:20:26.673Z,51.04
2023-10-11T03:21:26.686Z,51.04
2023-10-11T03:22:26.643Z,51.04
2023-10-11T03:23:26.673Z,51.04
2023-10-11T03:24:26.619Z,51.15
2023-10-11T03:25:26.619Z,51.04
2023-10-11T03:26:26.623Z,51.04
2023-10-11T03:27:26.599Z,51.04
2023-10-11T03:28:26.601Z,51.04
2023-10-11T03:29:26.570Z,51.04
2023-10-11T03:30:26.690Z,51.04
2023-10-11T03:31:26.593Z,51.04
2023-10-11T03:32:27.187Z,51.04
2023-10-11T03:33:26.658Z,51.04
2023-10-11T03:34:26.512Z,51.04
2023-10-11T03:35:26.501Z,51.04
2023-10-11T03:36:26.492Z,51.04
2023-10-11T03:37:26.480Z,51.04
2023-10-11T03:38:26.493Z,51.04
2023-10-11T03:39:26.524Z,51.04
2023-10-11T03:40:26.484Z,51.04
2023-10-11T03:41:26.436Z,51.04
2023-10-11T03:42:26.456Z,51.04
2023-10-11T03:43:26.414Z,51.04
2023-10-11T03:44:26.406Z,51.04
2023-10-11T03:45:26.425Z,51.04
2023-10-11T03:46:26.399Z,51.04
2023-10-11T03:47:26.434Z,51.04
2023-10-11T03:48:26.477Z,51.04
2023-10-11T03:49:26.349Z,51.04
2023-10-11T03:50:26.339Z,51.04
2023-10-11T03:51:26.399Z,50.95
2023-10-11T03:52:26.316Z,51.15
2023-10-11T03:53:26.333Z,51.04
2023-10-11T03:54:26.341Z,51.04
2023-10-11T03:55:26.287Z,51.04
2023-10-11T03:56:26.305Z,51.04
2023-10-11T03:57:26.272Z,50.95
2023-10-11T03:58:26.311Z,51.04
2023-10-11T03:59:26.240Z,51.04
2023-10-11T04:00:26.656Z,51.04
2023-10-11T04:01:26.356Z,51.04
2023-10-11T04:02:26.254Z,51.04
2023-10-11T04:03:26.321Z,51.04
2023-10-11T04:04:26.279Z,51.04
2023-10-11T04:05:26.181Z,50.95
2023-10-11T04:06:26.168Z,51.04
2023-10-11T04:07:26.155Z,51.04
2023-10-11T04:08:26.207Z,51.04
2023-10-11T04:09:26.193Z,51.04
2023-10-11T04:10:26.120Z,51.04
2023-10-11T04:11:26.111Z,51.04
2023-10-11T04:12:26.135Z,51.04
2023-10-11T04:13:26.087Z,51.04
2023-10-11T04:14:26.135Z,51.04
2023-10-11T04:15:26.137Z,50.95
2023-10-11T04:16:26.058Z,51.04
2023-10-11T04:17:26.060Z,51.04
2023-10-11T04:18:26.314Z,51.04
2023-10-11T04:19:29.040Z,51.04
2023-10-11T04:20:26.044Z,51.04
2023-10-11T04:21:25.999Z,51.04
2023-10-11T04:22:25.989Z,51.04
2023-10-11T04:23:26.053Z,50.95
2023-10-11T04:24:26.101Z,51.04
2023-10-11T04:25:26.966Z,50.95
2023-10-11T04:26:25.948Z,50.95
2023-10-11T04:27:25.999Z,50.95
2023-10-11T04:28:25.930Z,50.95
2023-10-11T04:29:25.939Z,50.95
2023-10-11T04:30:26.028Z,50.95
2023-10-11T04:31:25.940Z,50.95
2023-10-11T04:32:25.892Z,50.95
2023-10-11T04:33:25.967Z,50.95
2023-10-11T04:34:25.889Z,50.95
2023-10-11T04:35:25.849Z,50.95
2023-10-11T04:36:25.962Z,50.95
2023-10-11T04:37:25.827Z,50.95
2023-10-11T04:38:25.831Z,50.95
2023-10-11T04:39:25.871Z,50.84
2023-10-11T04:40:25.790Z,50.84
2023-10-11T04:41:25.785Z,50.95
2023-10-11T04:42:25.770Z,50.95
2023-10-11T04:43:25.761Z,50.95
2023-10-11T04:44:25.745Z,50.95
2023-10-11T04:45:25.844Z,50.95
2023-10-11T04:46:25.821Z,50.84
2023-10-11T04:47:25.861Z,50.84
2023-10-11T04:48:25.828Z,50.84
2023-10-11T04:49:25.869Z,50.84
2023-10-11T04:50:25.709Z,50.84
2023-10-11T04:51:25.694Z,50.84
2023-10-11T04:52:25.664Z,50.84
2023-10-11T04:53:25.648Z,50.84
2023-10-11T04:54:25.687Z,50.84
2023-10-11T04:55:25.657Z,50.95
2023-10-11T04:56:25.620Z,50.84
2023-10-11T04:57:25.698Z,50.95
2023-10-11T04:58:25.593Z,50.84
2023-10-11T04:59:25.590Z,50.84
2023-10-11T05:00:25.658Z,50.84
2023-10-11T05:01:25.575Z,50.84
2023-10-11T05:02:25.587Z,50.84
2023-10-11T05:03:25.628Z,50.84
2023-10-11T05:04:25.571Z,50.84
2023-10-11T05:05:25.577Z,50.84
2023-10-11T05:06:25.616Z,50.84
2023-10-11T05:07:25.500Z,50.84
2023-10-11T05:08:25.537Z,50.84
2023-10-11T05:09:25.545Z,50.84
2023-10-11T05:10:25.499Z,50.84
2023-10-11T05:11:25.487Z,50.84
2023-10-11T05:12:25.538Z,50.95
2023-10-11T05:13:25.429Z,50.84
2023-10-11T05:14:25.431Z,50.84
2023-10-11T05:15:25.479Z,50.84
2023-10-11T05:16:25.398Z,50.84
2023-10-11T05:17:25.452Z,50.84
2023-10-11T05:18:25.964Z,50.84
2023-10-11T05:19:25.416Z,50.84
2023-10-11T05:20:25.357Z,50.84
2023-10-11T05:21:25.364Z,50.84
2023-10-11T05:22:25.370Z,50.84
2023-10-11T05:23:25.320Z,50.84
2023-10-11T05:24:25.361Z,50.84
2023-10-11T05:25:25.297Z,50.84
2023-10-11T05:26:25.289Z,50.84
2023-10-11T05:27:25.276Z,50.84
2023-10-11T05:28:25.299Z,50.84
2023-10-11T05:29:25.388Z,50.84
2023-10-11T05:30:25.264Z,50.84
2023-10-11T05:31:25.270Z,50.84
2023-10-11T05:32:25.273Z,50.84
2023-10-11T05:33:25.315Z,50.84
2023-10-11T05:34:25.233Z,50.84
2023-10-11T05:35:27.773Z,50.84
2023-10-11T05:36:25.216Z,50.74
2023-10-11T05:37:25.169Z,50.84
2023-10-11T05:38:25.187Z,50.84
2023-10-11T05:39:25.157Z,50.74
2023-10-11T05:40:25.148Z,50.84
2023-10-11T05:41:25.129Z,50.74
2023-10-11T05:42:25.129Z,50.84
2023-10-11T05:43:25.135Z,50.84
2023-10-11T05:44:25.104Z,50.84
2023-10-11T05:45:25.113Z,50.84
2023-10-11T05:46:25.078Z,50.84
2023-10-11T05:47:25.107Z,50.84
2023-10-11T05:48:25.115Z,50.84
2023-10-11T05:49:25.045Z,50.74
2023-10-11T05:50:25.049Z,50.84
2023-10-11T05:51:25.036Z,50.84
2023-10-11T05:52:25.007Z,50.74
2023-10-11T05:53:25.021Z,50.74
2023-10-11T05:54:25.040Z,50.74
2023-10-11T05:55:25.036Z,50.65
2023-10-11T05:56:24.980Z,51.04
2023-10-11T05:57:25.067Z,50.95
2023-10-11T05:58:24.980Z,51.04
2023-10-11T05:59:24.937Z,51.04
2023-10-11T06:00:25.001Z,51.04
2023-10-11T06:01:24.985Z,51.04
2023-10-11T06:02:24.957Z,50.95
2023-10-11T06:03:24.975Z,50.95
2023-10-11T06:04:24.954Z,50.95
2023-10-11T06:05:25.191Z,50.95
2023-10-11T06:06:25.243Z,50.95
2023-10-11T06:07:24.843Z,50.84
2023-10-11T06:08:24.829Z,50.95
2023-10-11T06:09:24.873Z,50.84
2023-10-11T06:10:24.839Z,50.95
2023-10-11T06:11:24.802Z,50.84
2023-10-11T06:12:25.554Z,50.84
2023-10-11T06:13:24.804Z,50.84
2023-10-11T06:14:24.773Z,50.74
2023-10-11T06:15:24.831Z,50.84
2023-10-11T06:16:26.158Z,50.84
2023-10-11T06:17:24.775Z,50.84
2023-10-11T06:18:24.833Z,50.95
2023-10-11T06:19:24.710Z,51.15
2023-10-11T06:20:25.015Z,51.45
2023-10-11T06:21:24.738Z,51.75
2023-10-11T06:22:24.752Z,52.14
2023-10-11T06:23:24.687Z,52.25
2023-10-11T06:24:24.717Z,52.44
2023-10-11T06:25:25.360Z,52.67
2023-10-11T06:26:24.651Z,52.77
2023-10-11T06:27:24.645Z,52.87
2023-10-11T06:28:24.644Z,52.97
2023-10-11T06:29:24.618Z,53.07
2023-10-11T06:30:24.720Z,53.17
2023-10-11T06:31:24.641Z,53.27
2023-10-11T06:32:24.581Z,53.37
2023-10-11T06:33:24.659Z,53.49
2023-10-11T06:34:24.548Z,53.59
2023-10-11T06:35:24.600Z,53.69
2023-10-11T06:36:24.654Z,53.89
2023-10-11T06:37:24.527Z,53.99
2023-10-11T06:38:24.706Z,54.10
2023-10-11T06:39:24.530Z,54.10
2023-10-11T06:40:24.484Z,54.10
2023-10-11T06:41:24.473Z,54.10
2023-10-11T06:42:24.662Z,54.19
2023-10-11T06:43:24.539Z,54.19
2023-10-11T06:44:24.453Z,54.29
2023-10-11T06:45:24.509Z,54.29
2023-10-11T06:46:24.445Z,54.49
2023-10-11T06:47:24.670Z,54.49
2023-10-11T06:48:24.539Z,54.60
2023-10-11T06:49:24.385Z,54.69
2023-10-11T06:50:24.377Z,54.69
2023-10-11T06:51:24.419Z,54.69
2023-10-11T06:52:24.353Z,54.79
2023-10-11T06:53:24.374Z,54.79
2023-10-11T06:54:24.398Z,54.79
2023-10-11T06:55:24.372Z,54.90
2023-10-11T06:56:24.307Z,54.90
2023-10-11T06:57:24.343Z,54.99
2023-10-11T06:58:24.307Z,54.99
2023-10-11T06:59:24.275Z,54.99
2023-10-11T07:00:24.297Z,54.99
2023-10-11T07:01:24.268Z,54.99
2023-10-11T07:02:24.284Z,55.09
2023-10-11T07:03:24.389Z,55.09
2023-10-11T07:04:24.307Z,55.09
2023-10-11T07:05:24.209Z,55.09
2023-10-11T07:06:24.221Z,55.19
2023-10-11T07:07:24.192Z,55.19
2023-10-11T07:08:24.206Z,55.19
2023-10-11T07:09:24.256Z,55.29
2023-10-11T07:10:24.241Z,55.29
2023-10-11T07:11:24.146Z,55.40
2023-10-11T07:12:24.176Z,55.49
2023-10-11T07:13:24.122Z,55.49
2023-10-11T07:14:24.117Z,55.49
2023-10-11T07:15:24.172Z,55.40
2023-10-11T07:16:24.139Z,55.49
2023-10-11T07:17:24.085Z,55.49
2023-10-11T07:18:24.169Z,55.49
2023-10-11T07:19:24.060Z,55.59
2023-10-11T07:20:24.047Z,55.59
2023-10-11T07:21:24.103Z,55.69
2023-10-11T07:22:24.026Z,55.79
2023-10-11T07:23:24.043Z,55.92
2023-10-11T07:24:24.065Z,56.02
2023-10-11T07:25:24.000Z,56.02
2023-10-11T07:26:24.176Z,56.02
2023-10-11T07:27:24.080Z,56.12
2023-10-11T07:28:23.993Z,56.12
2023-10-11T07:29:24.131Z,56.12
2023-10-11T07:30:24.008Z,56.12
2023-10-11T07:31:23.962Z,56.22
2023-10-11T07:32:23.990Z,56.22
2023-10-11T07:33:24.012Z,56.22
2023-10-11T07:34:24.055Z,56.22
2023-10-11T07:35:23.882Z,56.42
2023-10-11T07:36:25.806Z,56.32
2023-10-11T07:37:23.888Z,56.32
2023-10-11T07:38:23.851Z,56.32
2023-10-11T07:39:23.884Z,56.32
2023-10-11T07:40:23.834Z,56.22
2023-10-11T07:41:23.827Z,56.22
2023-10-11T07:42:23.895Z,56.22
2023-10-11T07:43:23.828Z,56.22
2023-10-11T07:44:23.786Z,56.22
2023-10-11T07:45:23.825Z,56.22
2023-10-11T07:46:23.784Z,56.32
2023-10-11T07:47:23.766Z,56.22
2023-10-11T07:48:24.669Z,56.32
2023-10-11T07:49:23.732Z,56.32
2023-10-11T07:50:24.398Z,56.22
2023-10-11T07:51:23.799Z,56.32
2023-10-11T07:52:23.697Z,56.22
2023-10-11T07:53:23.690Z,56.22
2023-10-11T07:54:23.726Z,56.22
2023-10-11T07:55:23.670Z,56.32
2023-10-11T07:56:23.653Z,56.32
2023-10-11T07:57:23.748Z,56.32
2023-10-11T07:58:23.670Z,56.32
2023-10-11T07:59:23.655Z,56.32
2023-10-11T08:00:23.628Z,56.32
2023-10-11T08:01:23.658Z,56.32
2023-10-11T08:02:23.587Z,56.32
2023-10-11T08:03:23.627Z,56.29
2023-10-11T08:04:23.636Z,56.32
2023-10-11T08:05:23.566Z,56.29
2023-10-11T08:06:24.583Z,56.32
2023-10-11T08:07:23.536Z,56.49
2023-10-11T08:08:23.525Z,56.59
2023-10-11T08:09:23.565Z,56.59
2023-10-11T08:10:24.035Z,56.49
2023-10-11T08:11:23.530Z,56.49
2023-10-11T08:12:23.503Z,56.49
2023-10-11T08:13:23.472Z,56.70
2023-10-11T08:14:23.593Z,56.59
2023-10-11T08:15:23.539Z,56.49
2023-10-11T08:16:24.095Z,56.59
2023-10-11T08:17:23.426Z,56.59
2023-10-11T08:18:23.491Z,56.59
2023-10-11T08:19:23.434Z,56.59
2023-10-11T08:20:23.401Z,56.70
2023-10-11T08:21:23.415Z,56.79
2023-10-11T08:22:23.371Z,56.70
2023-10-11T08:23:23.365Z,56.59
2023-10-11T08:24:23.410Z,56.49
2023-10-11T08:25:23.342Z,56.70
2023-10-11T08:26:23.328Z,56.70
2023-10-11T08:27:23.407Z,56.59
2023-10-11T08:28:23.306Z,56.70
2023-10-11T08:29:23.324Z,56.70
2023-10-11T08:30:23.334Z,56.82
2023-10-11T08:31:23.303Z,56.82
2023-10-11T08:32:23.266Z,56.82
2023-10-11T08:33:23.321Z,56.92
2023-10-11T08:34:23.271Z,56.82
2023-10-11T08:35:23.229Z,56.92
2023-10-11T08:36:23.232Z,56.92
2023-10-11T08:37:23.218Z,56.82
2023-10-11T08:38:23.197Z,56.82
2023-10-11T08:39:23.214Z,56.92
2023-10-11T08:40:23.198Z,56.92
2023-10-11T08:41:23.175Z,56.82
2023-10-11T08:42:23.166Z,56.82
2023-10-11T08:43:24.048Z,56.92
2023-10-11T08:44:23.130Z,56.92
2023-10-11T08:45:23.239Z,56.92
2023-10-11T08:46:23.161Z,56.92
2023-10-11T08:47:23.112Z,56.92
2023-10-11T08:48:23.250Z,57.12
2023-10-11T08:49:23.073Z,57.02
2023-10-11T08:50:23.105Z,57.02
2023-10-11T08:51:23.112Z,57.02
2023-10-11T08:52:23.056Z,57.02
2023-10-11T08:53:23.046Z,57.02
2023-10-11T08:54:23.194Z,57.12
2023-10-11T08:55:23.071Z,57.12
2023-10-11T08:56:23.006Z,57.12
2023-10-11T08:57:23.057Z,57.22
2023-10-11T08:58:22.977Z,57.22
2023-10-11T08:59:22.969Z,57.22
2023-10-11T09:00:23.006Z,57.22
2023-10-11T09:01:22.992Z,57.12
2023-10-11T09:02:23.012Z,57.22
2023-10-11T09:03:23.080Z,57.32
2023-10-11T09:04:23.044Z,57.32
2023-10-11T09:05:22.987Z,57.32
2023-10-11T09:06:23.011Z,57.32
2023-10-11T09:07:22.879Z,57.32
2023-10-11T09:08:22.891Z,57.32
2023-10-11T09:09:22.916Z,57.32
2023-10-11T09:10:22.934Z,57.22
2023-10-11T09:11:22.861Z,57.32
2023-10-11T09:12:22.853Z,57.42
2023-10-11T09:13:22.816Z,57.32
2023-10-11T09:14:22.803Z,57.22
2023-10-11T09:15:22.894Z,57.32
2023-10-11T09:16:22.831Z,57.22
2023-10-11T09:17:22.773Z,57.32
2023-10-11T09:18:24.520Z,57.42
2023-10-11T09:19:22.749Z,57.42
2023-10-11T09:20:22.749Z,57.52
2023-10-11T09:21:22.856Z,57.42
2023-10-11T09:22:22.721Z,57.52
2023-10-11T09:23:22.713Z,57.62
2023-10-11T09:24:22.751Z,57.42
2023-10-11T09:25:22.794Z,57.50
2023-10-11T09:26:23.049Z,57.62
2023-10-11T09:27:22.806Z,57.52
2023-10-11T09:28:22.652Z,57.39
2023-10-11T09:29:22.642Z,57.52
2023-10-11T09:30:25.187Z,57.62
2023-10-11T09:31:22.720Z,57.72
2023-10-11T09:32:22.665Z,57.72
2023-10-11T09:33:22.671Z,57.69
2023-10-11T09:34:22.638Z,57.79
2023-10-11T09:35:22.592Z,57.39
2023-10-11T09:36:22.815Z,57.19
2023-10-11T09:37:23.550Z,57.32
2023-10-11T09:38:22.546Z,57.39
2023-10-11T09:39:22.562Z,57.50
2023-10-11T09:40:22.530Z,57.42
2023-10-11T09:41:22.543Z,57.32
2023-10-11T09:42:22.589Z,57.50
2023-10-11T09:43:22.485Z,57.39
2023-10-11T09:44:22.478Z,57.62
2023-10-11T09:45:22.497Z,57.39
2023-10-11T09:46:22.503Z,57.50
2023-10-11T09:47:22.442Z,57.50
2023-10-11T09:48:22.489Z,57.32
2023-10-11T09:49:22.427Z,57.39
2023-10-11T09:50:22.446Z,57.42
2023-10-11T09:51:22.473Z,57.42
2023-10-11T09:52:22.395Z,57.42
2023-10-11T09:53:22.377Z,57.52
2023-10-11T09:54:22.408Z,57.52
2023-10-11T09:55:22.384Z,57.62
2023-10-11T09:56:24.047Z,57.62
2023-10-11T09:57:22.422Z,57.72
2023-10-11T09:58:22.324Z,57.72
2023-10-11T09:59:22.320Z,57.82
2023-10-11T10:00:22.366Z,57.92
2023-10-11T10:01:22.377Z,57.92
2023-10-11T10:02:22.338Z,57.89
2023-10-11T10:03:22.375Z,57.89
2023-10-11T10:04:22.584Z,58.00
2023-10-11T10:05:22.262Z,58.00
2023-10-11T10:06:22.325Z,58.00
2023-10-11T10:07:22.274Z,58.00
2023-10-11T10:08:22.222Z,58.00
2023-10-11T10:09:22.262Z,58.09
2023-10-11T10:10:22.195Z,58.19
2023-10-11T10:11:22.191Z,58.19
2023-10-11T10:12:22.269Z,58.19
2023-10-11T10:13:22.168Z,58.19
2023-10-11T10:14:22.156Z,58.19
2023-10-11T10:15:22.258Z,58.19
2023-10-11T10:16:22.178Z,58.19
2023-10-11T10:17:22.163Z,58.19
2023-10-11T10:18:22.210Z,58.19
2023-10-11T10:19:22.169Z,58.19
2023-10-11T10:20:22.089Z,58.19
2023-10-11T10:21:22.120Z,58.29
2023-10-11T10:22:22.118Z,58.29
2023-10-11T10:23:22.083Z,57.89
2023-10-11T10:24:22.073Z,58.00
2023-10-11T10:25:22.228Z,58.00
2023-10-11T10:26:22.024Z,58.00
2023-10-11T10:27:22.046Z,58.09
2023-10-11T10:28:22.032Z,58.19
2023-10-11T10:29:21.989Z,58.19
2023-10-11T10:30:22.136Z,58.29
2023-10-11T10:31:22.026Z,58.39
2023-10-11T10:32:21.967Z,58.39
2023-10-11T10:33:22.033Z,58.39
2023-10-11T10:34:21.947Z,58.39
2023-10-11T10:35:22.010Z,58.39
2023-10-11T10:36:21.994Z,58.39
2023-10-11T10:37:21.902Z,58.19
2023-10-11T10:38:21.913Z,58.00
2023-10-11T10:39:21.964Z,57.89
2023-10-11T10:40:21.867Z,58.00
2023-10-11T10:41:21.877Z,58.09
2023-10-11T10:42:21.897Z,57.89
2023-10-11T10:43:22.094Z,57.69
2023-10-11T10:44:21.945Z,57.72
2023-10-11T10:45:21.920Z,57.92
2023-10-11T10:46:21.834Z,57.92
2023-10-11T10:47:21.824Z,57.82
2023-10-11T10:48:21.859Z,58.02
2023-10-11T10:49:21.782Z,58.22
2023-10-11T10:50:21.762Z,57.92
2023-10-11T10:51:21.797Z,58.12
2023-10-11T10:52:21.774Z,58.32
2023-10-11T10:53:21.728Z,58.22
2023-10-11T10:54:21.759Z,58.12
2023-10-11T10:55:21.751Z,58.12
2023-10-11T10:56:21.752Z,58.12
2023-10-11T10:57:21.747Z,58.22
2023-10-11T10:58:21.698Z,58.32
2023-10-11T10:59:22.581Z,58.42
2023-10-11T11:00:21.852Z,58.39
2023-10-11T11:01:21.791Z,58.29
2023-10-11T11:02:21.670Z,58.12
2023-10-11T11:03:21.803Z,58.29
2023-10-11T11:04:22.259Z,58.49
2023-10-11T11:05:21.596Z,58.49
2023-10-11T11:06:21.843Z,58.49
2023-10-11T11:07:21.604Z,58.59
2023-10-11T11:08:21.586Z,58.69
2023-10-11T11:09:21.591Z,58.69
2023-10-11T11:10:21.564Z,58.49
2023-10-11T11:11:21.530Z,58.59
2023-10-11T11:12:21.593Z,58.59
2023-10-11T11:13:21.513Z,58.49
2023-10-11T11:14:21.512Z,58.59
2023-10-11T11:15:22.345Z,58.59
2023-10-11T11:16:21.553Z,58.29
2023-10-11T11:17:21.473Z,58.59
2023-10-11T11:18:22.190Z,58.69
2023-10-11T11:19:21.449Z,58.80
2023-10-11T11:20:21.437Z,58.80
2023-10-11T11:21:21.721Z,58.89
2023-10-11T11:22:21.456Z,58.89
2023-10-11T11:23:21.403Z,58.89
2023-10-11T11:24:21.802Z,58.89
2023-10-11T11:25:21.380Z,58.89
2023-10-11T11:26:32.140Z,58.99
2023-10-11T11:27:22.405Z,58.69
2023-10-11T11:28:21.366Z,58.39
2023-10-11T11:29:21.335Z,58.39
2023-10-11T11:30:21.356Z,58.39
2023-10-11T11:31:21.326Z,58.29
2023-10-11T11:32:21.339Z,58.19
2023-10-11T11:33:21.410Z,58.19
2023-10-11T11:34:21.330Z,58.09
2023-10-11T11:35:21.273Z,58.09
2023-10-11T11:36:21.291Z,58.09
2023-10-11T11:37:21.285Z,58.12
2023-10-11T11:38:21.238Z,58.12
2023-10-11T11:39:21.286Z,58.12
2023-10-11T11:40:21.221Z,58.12
2023-10-11T11:41:28.860Z,58.12
2023-10-11T11:42:22.680Z,58.12
2023-10-11T11:43:21.221Z,58.12
2023-10-11T11:44:21.285Z,58.12
2023-10-11T11:45:21.521Z,58.12
2023-10-11T11:46:21.210Z,58.12
2023-10-11T11:47:21.171Z,58.12
2023-10-11T11:48:21.226Z,58.12
2023-10-11T11:49:21.120Z,58.12
2023-10-11T11:50:21.110Z,58.12
2023-10-11T11:51:21.151Z,58.62
2023-10-11T11:52:21.118Z,58.92
2023-10-11T11:53:21.074Z,58.99
2023-10-11T11:54:21.366Z,58.89
2023-10-11T11:55:21.057Z,58.80
2023-10-11T11:56:21.046Z,58.69
2023-10-11T11:57:21.098Z,58.59
2023-10-11T11:58:21.083Z,58.49
2023-10-11T11:59:21.029Z,58.49
2023-10-11T12:00:21.066Z,58.39
2023-10-11T12:01:21.138Z,58.29
2023-10-11T12:02:20.985Z,58.39
2023-10-11T12:03:21.762Z,58.29
2023-10-11T12:04:21.373Z,58.29
2023-10-11T12:05:20.967Z,58.19
2023-10-11T12:06:21.006Z,58.09
2023-10-11T12:07:20.920Z,58.09
2023-10-11T12:08:20.961Z,58.09
2023-10-11T12:09:20.933Z,58.29
2023-10-11T12:10:20.887Z,58.39
2023-10-11T12:11:20.879Z,58.59
2023-10-11T12:12:20.900Z,58.59
2023-10-11T12:13:20.882Z,58.59
2023-10-11T12:14:20.978Z,58.80
2023-10-11T12:15:20.955Z,58.80
2023-10-11T12:16:20.846Z,58.99
2023-10-11T12:17:20.814Z,59.09
2023-10-11T12:18:20.936Z,59.09
2023-10-11T12:19:20.790Z,59.09
2023-10-11T12:20:20.803Z,59.19
2023-10-11T12:21:20.793Z,59.19
2023-10-11T12:22:20.760Z,59.30
2023-10-11T12:23:20.776Z,59.30
2023-10-11T12:24:31.147Z,59.19
2023-10-11T12:25:21.721Z,59.19
2023-10-11T12:26:20.711Z,59.19
2023-10-11T12:27:20.778Z,59.19
2023-10-11T12:28:20.743Z,58.89
2023-10-11T12:29:20.683Z,58.80
2023-10-11T12:30:20.772Z,58.59
2023-10-11T12:31:20.715Z,58.49
2023-10-11T12:32:20.649Z,58.09
2023-10-11T12:33:20.750Z,57.89
2023-10-11T12:34:20.628Z,57.69
2023-10-11T12:35:20.646Z,57.50
2023-10-11T12:36:20.747Z,57.50
2023-10-11T12:37:20.845Z,57.59
2023-10-11T12:38:20.591Z,57.59
2023-10-11T12:39:20.619Z,57.39
2023-10-11T12:40:20.563Z,57.39
2023-10-11T12:41:21.120Z,57.39
2023-10-11T12:42:20.587Z,57.39
2023-10-11T12:43:20.531Z,57.50
2023-10-11T12:44:20.517Z,57.50
2023-10-11T12:45:20.561Z,57.39
2023-10-11T12:46:21.422Z,57.50
2023-10-11T12:47:20.514Z,57.59
2023-10-11T12:48:20.605Z,57.50
2023-10-11T12:49:20.464Z,57.50
2023-10-11T12:50:20.463Z,57.50
2023-10-11T12:51:20.512Z,57.39
2023-10-11T12:52:20.465Z,57.39